KELM/ELM METAR and TAF weather

Enter ICAO airport designator
Station Type Date Time Source
KELM METAR 2021/03/03 20:53 UTC NOAA

KELM 032053Z 32006KT 10SM OVC048 08/M04 A2981 RMK AO2 SLP104 T00831044 55004


Station Type Date Time Source
KELM Decoded METAR 2021/03/03 20:53 UTC NOAA

ELMIRA COUNTY AIRPORT, NY, United States (KELM) 42-10N 76-54W 302M
Mar 03, 2021 - 03:53 PM EST / 2021.03.03 2053 UTC
Wind: from the NW (320 degrees) at 7 MPH (6 KT):0
Visibility: 10 mile(s):0
Sky conditions: overcast
Temperature: 46.9 F (8.3 C)
Dew Point: 24.1 F (-4.4 C)
Relative Humidity: 40%
Pressure (altimeter): 29.81 in. Hg (1009 hPa)
Pressure tendency: 0.01 inches (0.4 hPa) lower than three hours ago
ob: KELM 032053Z 32006KT 10SM OVC048 08/M04 A2981 RMK AO2 SLP104 T00831044 55004
cycle: 21

Station Type Date Time Source
KELM TAF 2021/03/03 18:22 UTC NOAA

TAF KELM 031720Z 0318/0418 28010KT P6SM BKN045
FM040400 30006KT P6SM OVC025
FM041400 32013G20KT P6SM OVC025
FM041700 32015G22KT P6SM OVC050

Example: see airport list